Lynchburg, Ohio
Current Conditions -  °F | °C
As of 9:54 AM on Thursday 30 Oct 2014 (Local Time) from KILN Reporting Station
Overcast Overcast  
Wind Chill: 43°   Ceiling: 3900
Heat Index: 46°   Visibility: 10mi
Dew Point: 35°   Wind: 6mph
Humidity: 66%   Direction: 330°NNW
Pressure: 30.16"   Gusts: NA
Location:  39.24°N, 83.79°W
Report Text: KILN 301354Z AUTO 33005KT 10SM OVC039 08/02 A3016 RMK AO2 SLP228 T00780017
Loading
Personal Weather Stations






























Interactive Weather Map
Tropical Storm Tracking
New forecast layout! Learn more

10-Day Weather Forecast

Advertisements
Track Severe Weather on mobile